createdAt,value
2024-01-10T00:01:55.761Z,64.48
2024-01-10T00:04:25.678Z,64.35
2024-01-10T00:06:55.494Z,64.14
2024-01-10T00:09:25.589Z,63.99
2024-01-10T00:12:00.908Z,64.17
2024-01-10T00:14:30.753Z,64.05
2024-01-10T00:17:00.691Z,64.03
2024-01-10T00:19:30.521Z,63.94
2024-01-10T00:22:00.329Z,63.73
2024-01-10T00:24:30.170Z,63.68
2024-01-10T00:27:02.493Z,63.53
2024-01-10T00:29:32.583Z,63.41
2024-01-10T00:32:03.248Z,63.63
2024-01-10T00:34:33.178Z,63.46
2024-01-10T00:37:02.942Z,63.66
2024-01-10T00:39:32.679Z,63.65
2024-01-10T00:42:05.101Z,63.64
2024-01-10T00:44:34.872Z,63.70
2024-01-10T00:47:04.662Z,63.67
2024-01-10T00:49:34.556Z,63.62
2024-01-10T00:52:04.408Z,63.54
2024-01-10T00:54:34.253Z,63.71
2024-01-10T00:57:07.308Z,63.65
2024-01-10T00:59:37.142Z,63.83
2024-01-10T01:02:04.815Z,64.07
2024-01-10T01:04:34.628Z,63.96
2024-01-10T01:07:04.666Z,64.21
2024-01-10T01:09:34.624Z,64.11
2024-01-10T01:12:07.945Z,64.42
2024-01-10T01:14:38.279Z,64.44
2024-01-10T01:17:08.143Z,64.43
2024-01-10T01:19:38.008Z,64.34
2024-01-10T01:22:07.965Z,64.36
2024-01-10T01:24:37.856Z,64.44
2024-01-10T01:27:10.508Z,64.36
2024-01-10T01:29:40.304Z,64.67
2024-01-10T01:32:10.397Z,64.47
2024-01-10T01:34:40.335Z,64.75
2024-01-10T01:37:10.923Z,64.85
2024-01-10T01:39:40.787Z,64.89
2024-01-10T01:42:13.241Z,64.96
2024-01-10T01:44:45.611Z,65.00
2024-01-10T01:47:15.855Z,64.90
2024-01-10T01:49:46.675Z,64.89
2024-01-10T01:52:16.823Z,65.06
2024-01-10T01:54:46.739Z,65.19
2024-01-10T01:57:19.097Z,65.20
2024-01-10T01:59:48.904Z,65.19
2024-01-10T02:02:19.105Z,65.19
2024-01-10T02:04:53.554Z,65.44
2024-01-10T02:07:24.522Z,65.35
2024-01-10T02:09:54.841Z,65.61
2024-01-10T02:12:28.090Z,65.66
2024-01-10T02:14:57.939Z,65.52
2024-01-10T02:17:28.517Z,65.84
2024-01-10T02:20:12.113Z,65.65
2024-01-10T02:22:42.092Z,65.91
2024-01-10T02:25:14.937Z,65.86
2024-01-10T02:27:45.358Z,66.19
2024-01-10T02:30:15.771Z,66.28
2024-01-10T02:32:45.647Z,66.30
2024-01-10T02:35:15.831Z,66.46
2024-01-10T02:37:46.232Z,67.00
2024-01-10T02:40:18.993Z,66.99
2024-01-10T02:42:49.012Z,67.18
2024-01-10T02:45:18.991Z,67.29
2024-01-10T02:47:49.408Z,67.33
2024-01-10T02:50:19.533Z,67.58
2024-01-10T02:52:49.504Z,67.92
2024-01-10T02:55:22.107Z,68.00
2024-01-10T02:57:52.012Z,68.09
2024-01-10T03:00:22.178Z,68.46
2024-01-10T03:02:51.945Z,68.63
2024-01-10T03:05:21.903Z,68.70
2024-01-10T03:07:51.868Z,69.01
2024-01-10T03:10:24.385Z,69.07
2024-01-10T03:12:54.495Z,69.42
2024-01-10T03:15:24.580Z,69.60
2024-01-10T03:17:54.448Z,69.60
2024-01-10T03:20:24.407Z,69.92
2024-01-10T03:22:54.299Z,70.09
2024-01-10T03:25:26.799Z,70.16
2024-01-10T03:27:56.763Z,70.44
2024-01-10T03:30:26.866Z,70.69
2024-01-10T03:32:56.955Z,70.78
2024-01-10T03:35:27.074Z,70.73
2024-01-10T03:37:57.026Z,70.96
2024-01-10T03:40:29.434Z,71.14
2024-01-10T03:42:59.509Z,71.37
2024-01-10T03:45:30.027Z,71.48
2024-01-10T03:47:59.849Z,71.68
2024-01-10T03:50:29.732Z,71.80
2024-01-10T03:52:59.607Z,72.15
2024-01-10T03:55:33.921Z,71.94
2024-01-10T03:58:03.889Z,72.10
2024-01-10T04:00:33.742Z,72.30
2024-01-10T04:03:04.888Z,72.43
2024-01-10T04:05:34.841Z,72.49
2024-01-10T04:08:05.238Z,72.58
2024-01-10T04:10:37.777Z,72.56
2024-01-10T04:13:07.997Z,72.74
2024-01-10T04:15:38.679Z,72.77
2024-01-10T04:18:09.094Z,72.78
2024-01-10T04:20:39.088Z,72.96
2024-01-10T04:23:09.126Z,73.18
2024-01-10T04:25:41.667Z,73.22
2024-01-10T04:28:11.495Z,73.32
2024-01-10T04:30:41.336Z,73.24
2024-01-10T04:33:13.968Z,73.30
2024-01-10T04:35:43.758Z,73.38
2024-01-10T04:38:13.561Z,73.08
2024-01-10T04:40:48.214Z,72.97
2024-01-10T04:43:18.106Z,72.67
2024-01-10T04:45:47.948Z,72.18
2024-01-10T04:48:17.851Z,71.52
2024-01-10T04:50:50.489Z,71.08
2024-01-10T04:53:20.365Z,70.22
2024-01-10T04:55:52.896Z,69.46
2024-01-10T04:58:22.671Z,68.91
2024-01-10T05:00:52.559Z,68.23
2024-01-10T05:03:22.815Z,67.67
2024-01-10T05:05:52.840Z,67.35
2024-01-10T05:08:23.248Z,66.93
2024-01-10T05:10:55.991Z,66.44
2024-01-10T05:13:26.333Z,66.08
2024-01-10T05:15:56.680Z,65.76
2024-01-10T05:18:26.749Z,65.42
2024-01-10T05:20:56.586Z,65.01
2024-01-10T05:23:26.505Z,64.75
2024-01-10T05:26:02.200Z,64.71
2024-01-10T05:28:31.996Z,64.74
2024-01-10T05:31:03.325Z,64.46
2024-01-10T05:33:33.337Z,64.29
2024-01-10T05:36:04.062Z,64.12
2024-01-10T05:38:38.437Z,63.85
2024-01-10T05:41:11.269Z,64.04
2024-01-10T05:43:42.142Z,64.09
2024-01-10T05:46:12.063Z,63.94
2024-01-10T05:48:42.981Z,64.01
2024-01-10T05:51:13.544Z,64.26
2024-01-10T05:53:43.444Z,64.22
2024-01-10T05:56:18.122Z,64.04
2024-01-10T05:58:48.332Z,64.01
2024-01-10T06:01:18.296Z,64.21
2024-01-10T06:03:48.365Z,64.28
2024-01-10T06:06:19.667Z,64.33
2024-01-10T06:08:52.320Z,64.30
2024-01-10T06:11:25.019Z,64.75
2024-01-10T06:13:57.596Z,64.80
2024-01-10T06:16:28.331Z,64.80
2024-01-10T06:19:01.201Z,64.76
2024-01-10T06:21:31.164Z,64.33
2024-01-10T06:24:01.027Z,64.22
2024-01-10T06:26:33.755Z,64.03
2024-01-10T06:29:03.818Z,64.05
2024-01-10T06:31:33.825Z,64.04
2024-01-10T06:34:03.661Z,63.91
2024-01-10T06:36:33.467Z,63.65
2024-01-10T06:39:03.248Z,63.37
2024-01-10T06:41:35.803Z,62.75
2024-01-10T06:44:06.941Z,62.73
2024-01-10T06:46:36.992Z,62.43
2024-01-10T06:49:08.712Z,62.29
2024-01-10T06:51:43.740Z,62.25
2024-01-10T06:54:15.077Z,62.14
2024-01-10T06:56:48.210Z,62.22
2024-01-10T06:59:18.649Z,62.14
2024-01-10T07:01:48.631Z,62.06
2024-01-10T07:04:20.604Z,62.00
2024-01-10T07:06:51.464Z,61.99
2024-01-10T07:09:21.764Z,61.83
2024-01-10T07:11:54.366Z,61.98
2024-01-10T07:14:24.358Z,61.94
2024-01-10T07:16:57.395Z,62.08
2024-01-10T07:19:27.515Z,62.36
2024-01-10T07:22:02.116Z,62.55
2024-01-10T07:24:35.759Z,62.79
2024-01-10T07:27:09.147Z,62.81
2024-01-10T07:29:39.172Z,62.63
2024-01-10T07:32:16.183Z,62.39
2024-01-10T07:34:46.504Z,62.28
2024-01-10T07:37:22.383Z,61.93
2024-01-10T07:39:52.764Z,61.64
2024-01-10T07:42:25.986Z,61.42
2024-01-10T07:44:57.002Z,61.31
2024-01-10T07:47:29.486Z,61.21
2024-01-10T07:49:59.755Z,61.43
2024-01-10T07:52:30.127Z,60.93
2024-01-10T07:55:00.209Z,60.78
2024-01-10T07:57:33.749Z,60.66
2024-01-10T08:00:05.368Z,60.39
2024-01-10T08:02:40.508Z,60.29
2024-01-10T08:05:12.308Z,60.12
2024-01-10T08:07:42.319Z,59.84
2024-01-10T08:10:20.215Z,60.01
2024-01-10T08:12:54.013Z,59.83
2024-01-10T08:15:24.097Z,59.88
2024-01-10T08:17:54.129Z,60.18
2024-01-10T08:20:24.152Z,60.21
2024-01-10T08:22:54.901Z,60.31
2024-01-10T08:25:24.841Z,60.40
2024-01-10T08:27:58.926Z,60.42
2024-01-10T08:30:28.562Z,60.31
2024-01-10T08:32:58.597Z,60.02
2024-01-10T08:35:29.176Z,59.94
2024-01-10T08:37:59.494Z,59.89
2024-01-10T08:40:29.425Z,59.74
2024-01-10T08:43:02.636Z,59.81
2024-01-10T08:45:33.576Z,59.87
2024-01-10T08:48:06.269Z,59.25
2024-01-10T08:50:36.558Z,58.97
2024-01-10T08:53:07.351Z,58.78
2024-01-10T08:55:38.518Z,58.81
2024-01-10T08:58:11.285Z,58.38
2024-01-10T09:00:41.625Z,58.27
2024-01-10T09:03:11.579Z,58.12
2024-01-10T09:05:43.478Z,58.06
2024-01-10T09:08:17.335Z,58.11
2024-01-10T09:10:47.229Z,58.40
2024-01-10T09:13:20.036Z,58.29
2024-01-10T09:15:49.861Z,58.39
2024-01-10T09:18:20.004Z,58.40
2024-01-10T09:20:49.880Z,58.00
2024-01-10T09:23:20.224Z,57.81
2024-01-10T09:25:50.086Z,57.92
2024-01-10T09:28:22.534Z,57.99
2024-01-10T09:30:53.021Z,57.18
2024-01-10T09:33:24.060Z,56.77
2024-01-10T09:35:53.923Z,56.03
2024-01-10T09:38:24.030Z,55.30
2024-01-10T09:40:53.882Z,54.58
2024-01-10T09:43:26.271Z,53.60
2024-01-10T09:45:57.402Z,53.12
2024-01-10T09:48:27.452Z,52.15
2024-01-10T09:50:57.395Z,51.10
2024-01-10T09:53:28.767Z,50.61
2024-01-10T09:56:02.497Z,49.74
2024-01-10T09:58:40.440Z,48.68
2024-01-10T10:01:10.749Z,48.07
2024-01-10T10:03:42.088Z,47.08
2024-01-10T10:06:15.081Z,46.68
2024-01-10T10:08:46.026Z,46.37
2024-01-10T10:11:16.454Z,45.98
2024-01-10T10:13:48.893Z,45.45
2024-01-10T10:16:29.440Z,44.98
2024-01-10T10:18:59.996Z,45.21
2024-01-10T10:21:31.909Z,45.58
2024-01-10T10:24:04.181Z,45.73
2024-01-10T10:26:36.953Z,46.23
2024-01-10T10:29:09.412Z,46.49
2024-01-10T10:31:40.016Z,46.65
2024-01-10T10:34:10.046Z,46.73
2024-01-10T10:36:40.070Z,47.15
2024-01-10T10:39:14.810Z,47.58
2024-01-10T10:41:45.294Z,47.94
2024-01-10T10:44:22.222Z,48.39
2024-01-10T10:47:05.506Z,48.63
2024-01-10T10:49:50.797Z,48.60
2024-01-10T10:52:21.175Z,48.84
2024-01-10T10:54:52.195Z,48.87
2024-01-10T10:57:22.321Z,49.41
2024-01-10T10:59:56.184Z,49.53
2024-01-10T11:02:31.266Z,49.62
2024-01-10T11:05:02.631Z,49.84
2024-01-10T11:07:32.786Z,49.98
2024-01-10T11:10:03.904Z,50.07
2024-01-10T11:12:47.301Z,50.07
2024-01-10T11:15:25.476Z,50.34
2024-01-10T11:18:11.060Z,50.39
2024-01-10T11:20:55.180Z,50.51
2024-01-10T11:23:41.270Z,50.81
2024-01-10T11:26:12.134Z,50.69
2024-01-10T11:28:42.135Z,50.94
2024-01-10T11:31:14.858Z,51.43
2024-01-10T11:34:03.637Z,51.27
2024-01-10T11:37:03.767Z,51.48
2024-01-10T12:22:20.629Z,54.01
2024-01-10T12:24:53.772Z,54.36
2024-01-10T12:27:27.192Z,54.78
2024-01-10T12:29:57.586Z,54.99
2024-01-10T12:32:27.540Z,55.06
2024-01-10T12:35:04.706Z,55.38
2024-01-10T12:37:35.071Z,55.31
2024-01-10T12:40:09.746Z,55.60
2024-01-10T12:42:44.489Z,55.69
2024-01-10T12:45:24.809Z,55.63
2024-01-10T12:47:57.877Z,56.06
2024-01-10T12:50:28.970Z,56.23
2024-01-10T12:52:59.343Z,56.10
2024-01-10T12:55:30.471Z,56.08
2024-01-10T12:58:08.098Z,56.60
2024-01-10T13:00:38.992Z,56.90
2024-01-10T13:03:08.983Z,56.55
2024-01-10T13:05:39.056Z,56.69
2024-01-10T13:08:09.318Z,56.77
2024-01-10T13:10:39.331Z,56.89
2024-01-10T13:13:11.863Z,56.69
2024-01-10T13:15:41.971Z,56.70
2024-01-10T13:18:12.512Z,56.51
2024-01-10T13:20:42.503Z,56.95
2024-01-10T13:23:12.583Z,56.83
2024-01-10T13:25:42.873Z,57.05
2024-01-10T13:28:16.611Z,56.90
2024-01-10T13:30:47.050Z,56.74
2024-01-10T13:33:17.485Z,56.67
2024-01-10T13:35:47.651Z,56.64
2024-01-10T13:38:19.948Z,56.68
2024-01-10T13:40:50.005Z,56.77
2024-01-10T13:43:22.513Z,56.34
2024-01-10T13:45:53.602Z,56.50
2024-01-10T13:51:16.881Z,56.10
2024-01-10T13:53:55.670Z,55.97
2024-01-10T13:56:25.980Z,56.15
2024-01-10T13:59:01.663Z,56.11
2024-01-10T14:01:35.099Z,56.12
2024-01-10T14:04:11.370Z,56.21
2024-01-10T14:06:48.824Z,55.82
2024-01-10T14:09:21.868Z,55.39
2024-01-10T14:11:52.646Z,55.62
2024-01-10T14:14:26.431Z,55.50
2024-01-10T14:16:56.924Z,55.64
2024-01-10T14:19:27.460Z,55.46
2024-01-10T14:21:57.232Z,55.30
2024-01-10T14:24:29.073Z,55.39
2024-01-10T14:26:59.886Z,55.31
2024-01-10T14:29:34.932Z,55.18
2024-01-10T14:32:17.046Z,55.11
2024-01-10T14:34:48.458Z,55.04
2024-01-10T14:37:18.685Z,55.05
2024-01-10T14:39:48.679Z,55.11
2024-01-10T14:42:21.063Z,55.01
2024-01-10T14:44:53.503Z,54.98
2024-01-10T14:47:24.090Z,54.92
2024-01-10T14:49:54.099Z,55.04
2024-01-10T14:52:23.994Z,55.34
2024-01-10T14:54:53.822Z,55.36
2024-01-10T14:57:23.605Z,55.64
2024-01-10T14:59:56.331Z,55.92
2024-01-10T15:02:26.355Z,56.06
2024-01-10T15:04:56.648Z,55.86
2024-01-10T15:07:27.656Z,56.43
2024-01-10T15:09:59.860Z,56.60
2024-01-10T15:12:30.517Z,56.85
2024-01-10T15:15:03.536Z,56.86
2024-01-10T15:17:33.499Z,57.09
2024-01-10T15:20:03.741Z,57.06
2024-01-10T15:22:34.125Z,57.49
2024-01-10T15:25:03.941Z,57.54
2024-01-10T15:27:34.129Z,57.77
2024-01-10T15:30:15.696Z,57.77
2024-01-10T15:32:47.477Z,58.19
2024-01-10T15:35:17.796Z,58.41
2024-01-10T15:37:48.355Z,58.32
2024-01-10T15:40:18.218Z,58.28
2024-01-10T15:42:48.131Z,58.29
2024-01-10T15:45:20.733Z,58.24
2024-01-10T15:47:50.657Z,58.35
2024-01-10T15:50:21.164Z,58.48
2024-01-10T15:52:52.454Z,58.86
2024-01-10T15:55:22.672Z,58.79
2024-01-10T15:57:52.465Z,58.96
2024-01-10T16:00:25.028Z,59.08
2024-01-10T16:02:54.956Z,59.29
2024-01-10T16:05:26.021Z,59.29
2024-01-10T16:07:56.744Z,59.11
2024-01-10T16:10:29.716Z,59.40
2024-01-10T16:12:59.715Z,59.34
2024-01-10T16:15:32.096Z,59.53
2024-01-10T16:18:02.002Z,59.24
2024-01-10T16:20:31.885Z,59.55
2024-01-10T16:23:02.194Z,59.40
2024-01-10T16:25:32.758Z,59.64
2024-01-10T16:28:02.670Z,59.59
2024-01-10T16:30:35.109Z,59.72
2024-01-10T16:33:05.333Z,59.79
2024-01-10T16:35:35.686Z,59.98
2024-01-10T16:38:05.872Z,59.79
2024-01-10T16:40:35.971Z,59.91
2024-01-10T16:43:07.109Z,60.25
2024-01-10T16:45:39.715Z,60.64
2024-01-10T16:48:11.206Z,60.43
2024-01-10T16:50:42.790Z,60.76
2024-01-10T16:53:12.920Z,60.96
2024-01-10T16:55:49.573Z,61.11
2024-01-10T16:58:22.573Z,60.95
2024-01-10T17:00:58.602Z,61.18
2024-01-10T17:03:28.698Z,61.31
2024-01-10T17:05:58.981Z,61.50
2024-01-10T17:08:31.374Z,61.52
2024-01-10T17:11:06.479Z,61.80
2024-01-10T17:13:37.401Z,61.89
2024-01-10T17:16:10.982Z,62.14
2024-01-10T17:21:28.244Z,62.23
2024-01-10T17:23:59.698Z,62.19
2024-01-10T17:26:30.984Z,62.30
2024-01-10T17:29:21.173Z,62.87
2024-01-10T17:31:53.977Z,62.61
2024-01-10T17:34:24.212Z,62.59
2024-01-10T17:36:54.240Z,62.68
2024-01-10T17:39:25.581Z,62.77
2024-01-10T17:41:55.382Z,63.06
2024-01-10T17:44:25.358Z,63.30
2024-01-10T17:46:57.920Z,63.20
2024-01-10T17:49:28.025Z,63.72
2024-01-10T17:51:58.671Z,64.03
2024-01-10T17:54:29.247Z,64.10
2024-01-10T17:57:00.740Z,64.09
2024-01-10T17:59:30.922Z,64.21
2024-01-10T18:02:03.699Z,64.43
2024-01-10T18:04:34.053Z,64.56
2024-01-10T18:07:04.563Z,64.66
2024-01-10T18:09:34.980Z,64.77
2024-01-10T18:12:05.368Z,64.92
2024-01-10T18:14:35.325Z,65.39
2024-01-10T18:17:08.258Z,65.41
2024-01-10T18:19:42.460Z,65.45
2024-01-10T18:22:17.515Z,65.45
2024-01-10T18:24:47.584Z,65.25
2024-01-10T18:27:23.306Z,65.42
2024-01-10T18:29:58.410Z,65.56
2024-01-10T18:32:32.053Z,65.97
2024-01-10T18:35:05.510Z,66.09
2024-01-10T18:37:37.067Z,66.42
2024-01-10T18:40:10.479Z,66.67
2024-01-10T18:42:40.607Z,66.70
2024-01-10T18:45:13.888Z,66.96
2024-01-10T18:47:50.521Z,66.79
2024-01-10T18:50:20.907Z,67.04
2024-01-10T18:52:51.090Z,67.18
2024-01-10T18:55:22.068Z,67.19
2024-01-10T18:57:54.346Z,67.14
2024-01-10T19:00:28.384Z,67.43
2024-01-10T19:03:01.902Z,67.22
2024-01-10T19:05:35.071Z,67.48
2024-01-10T19:08:08.207Z,67.60
2024-01-10T19:10:42.088Z,67.82
2024-01-10T19:13:11.928Z,67.76
2024-01-10T19:15:42.084Z,67.80
2024-01-10T19:18:17.336Z,67.93
2024-01-10T19:20:47.646Z,68.23
2024-01-10T19:23:19.926Z,68.17
2024-01-10T19:25:50.300Z,68.17
2024-01-10T19:28:23.292Z,68.15
2024-01-10T19:30:57.204Z,68.36
2024-01-10T19:33:30.397Z,68.70
2024-01-10T19:36:00.577Z,68.76
2024-01-10T19:38:31.035Z,68.73
2024-01-10T19:41:03.712Z,68.89
2024-01-10T19:43:33.717Z,68.78
2024-01-10T19:46:03.789Z,68.93
2024-01-10T19:48:36.563Z,68.70
2024-01-10T19:51:06.639Z,68.68
2024-01-10T19:53:36.672Z,68.82
2024-01-10T19:56:06.696Z,69.09
2024-01-10T19:58:38.744Z,69.29
2024-01-10T20:01:08.672Z,69.59
2024-01-10T20:03:41.570Z,69.82
2024-01-10T20:06:11.857Z,69.83
2024-01-10T20:08:41.724Z,70.06
2024-01-10T20:11:11.816Z,70.11
2024-01-10T20:13:42.549Z,70.34
2024-01-10T20:16:12.480Z,70.88
2024-01-10T20:18:44.952Z,71.04
2024-01-10T20:21:18.036Z,71.20
2024-01-10T20:23:49.105Z,71.50
2024-01-10T20:26:19.292Z,71.38
2024-01-10T20:28:49.370Z,71.54
2024-01-10T20:31:21.388Z,71.60
2024-01-10T20:33:54.313Z,71.54
2024-01-10T20:36:24.279Z,71.68
2024-01-10T20:38:54.111Z,71.45
2024-01-10T20:41:23.911Z,71.59
2024-01-10T20:43:53.778Z,71.77
2024-01-10T20:46:23.590Z,71.88
2024-01-10T20:48:58.131Z,71.76
2024-01-10T20:51:27.920Z,71.86
2024-01-10T20:53:57.881Z,71.89
2024-01-10T20:56:27.909Z,72.00
2024-01-10T20:58:58.126Z,72.14
2024-01-10T21:01:28.551Z,72.10
2024-01-10T21:04:01.071Z,72.43
2024-01-10T21:06:30.878Z,72.63
2024-01-10T21:09:00.962Z,72.84
2024-01-10T21:11:30.873Z,72.87
2024-01-10T21:14:03.618Z,72.92
2024-01-10T21:16:33.477Z,73.05
2024-01-10T21:19:13.637Z,73.14
2024-01-10T21:21:43.694Z,73.38
2024-01-10T21:24:13.527Z,73.67
2024-01-10T21:26:44.944Z,73.74
2024-01-10T21:29:15.978Z,73.96
2024-01-10T21:31:45.877Z,74.05
2024-01-10T21:34:18.479Z,74.22
2024-01-10T21:36:48.325Z,74.56
2024-01-10T21:39:18.307Z,74.64
2024-01-10T21:41:48.338Z,74.68
2024-01-10T21:44:18.412Z,74.74
2024-01-10T21:46:48.216Z,74.96
2024-01-10T21:49:20.867Z,74.90
2024-01-10T21:51:50.905Z,74.92
2024-01-10T21:54:21.165Z,75.06
2024-01-10T21:56:51.020Z,75.11
2024-01-10T21:59:21.002Z,75.16
2024-01-10T22:01:51.693Z,75.41
2024-01-10T22:04:24.267Z,75.67
2024-01-10T22:06:54.262Z,75.71
2024-01-10T22:09:24.129Z,75.95
2024-01-10T22:11:54.013Z,75.87
2024-01-10T22:14:24.359Z,76.17
2024-01-10T22:16:54.238Z,76.21
2024-01-10T22:19:26.753Z,76.55
2024-01-10T22:21:56.966Z,76.70
2024-01-10T22:24:27.355Z,76.55
2024-01-10T22:26:57.279Z,76.93
2024-01-10T22:29:29.209Z,77.12
2024-01-10T22:31:59.119Z,77.26
2024-01-10T22:34:32.314Z,77.07
2024-01-10T22:37:02.177Z,77.44
2024-01-10T22:39:34.172Z,77.75
2024-01-10T22:42:03.995Z,77.55
2024-01-10T22:44:33.944Z,77.80
2024-01-10T22:47:03.970Z,78.00
2024-01-10T22:49:36.861Z,78.12
2024-01-10T22:52:07.059Z,78.08
2024-01-10T22:54:37.368Z,78.39
2024-01-10T22:57:07.888Z,78.37
2024-01-10T22:59:38.748Z,78.52
2024-01-10T23:02:09.060Z,78.47
2024-01-10T23:04:41.510Z,78.60
2024-01-10T23:07:11.385Z,78.97
2024-01-10T23:09:41.163Z,78.80
2024-01-10T23:12:11.794Z,78.83
2024-01-10T23:14:41.826Z,79.14
2024-01-10T23:17:11.774Z,79.24
2024-01-10T23:19:44.580Z,79.22
2024-01-10T23:22:14.427Z,79.12
2024-01-10T23:24:44.290Z,79.19
2024-01-10T23:27:14.350Z,79.23
2024-01-10T23:29:44.431Z,79.40
2024-01-10T23:32:14.394Z,79.27
2024-01-10T23:34:46.986Z,79.54
2024-01-10T23:37:18.481Z,79.52
2024-01-10T23:39:48.299Z,79.67
2024-01-10T23:42:18.296Z,79.48
2024-01-10T23:44:48.290Z,79.69
2024-01-10T23:47:18.212Z,79.75
2024-01-10T23:49:51.320Z,79.93
2024-01-10T23:52:21.246Z,79.97
2024-01-10T23:54:52.225Z,80.01
2024-01-10T23:57:22.346Z,80.21
2024-01-10T23:59:52.233Z,80.21
